createdAt,value
2019-03-12T00:02:16.900Z,2.83
2019-03-12T00:04:47.402Z,2.83
2019-03-12T00:07:17.819Z,2.90
2019-03-12T00:09:48.251Z,2.67
2019-03-12T00:12:19.088Z,2.93
2019-03-12T00:14:49.527Z,3.30
2019-03-12T00:17:19.972Z,3.40
2019-03-12T00:19:50.505Z,2.90
2019-03-12T00:22:20.938Z,3.43
2019-03-12T00:24:51.378Z,3.47
2019-03-12T00:27:21.896Z,3.47
2019-03-12T00:29:52.388Z,3.47
2019-03-12T00:32:22.838Z,3.90
2019-03-12T00:34:53.682Z,3.90
2019-03-12T00:37:24.413Z,3.83
2019-03-12T00:39:54.844Z,3.40
2019-03-12T00:42:25.319Z,2.97
2019-03-12T00:44:55.753Z,3.53
2019-03-12T00:47:26.541Z,2.97
2019-03-12T00:49:57.041Z,2.80
2019-03-12T00:52:27.447Z,2.70
2019-03-12T00:54:58.235Z,2.87
2019-03-12T00:57:28.711Z,3.70
2019-03-12T00:59:59.162Z,2.90
2019-03-12T01:02:29.588Z,3.57
2019-03-12T01:05:00.062Z,3.20
2019-03-12T01:07:30.788Z,3.77
2019-03-12T01:10:01.534Z,3.50
2019-03-12T01:12:32.412Z,3.63
2019-03-12T01:15:02.841Z,3.50
2019-03-12T01:17:33.268Z,3.77
2019-03-12T01:20:03.752Z,3.73
2019-03-12T01:22:34.500Z,3.70
2019-03-12T01:25:05.097Z,3.60
2019-03-12T01:27:35.977Z,3.53
2019-03-12T01:30:08.135Z,4.03
2019-03-12T01:32:38.616Z,3.60
2019-03-12T01:35:09.616Z,3.90
2019-03-12T01:37:40.048Z,4.23
2019-03-12T01:40:11.544Z,4.10
2019-03-12T01:42:42.021Z,3.93
2019-03-12T01:45:13.737Z,3.80
2019-03-12T01:47:44.266Z,3.67
2019-03-12T01:50:15.066Z,4.63
2019-03-12T01:52:45.764Z,4.67
2019-03-12T01:55:16.208Z,4.47
2019-03-12T01:57:46.697Z,4.60
2019-03-12T02:00:17.339Z,4.50
2019-03-12T02:02:47.873Z,4.07
2019-03-12T02:05:18.349Z,4.87
2019-03-12T02:07:48.828Z,4.23
2019-03-12T02:10:19.272Z,4.43
2019-03-12T02:12:50.349Z,4.30
2019-03-12T02:15:20.783Z,3.93
2019-03-12T02:17:51.529Z,3.67
2019-03-12T02:20:22.021Z,4.37
2019-03-12T02:22:52.730Z,4.43
2019-03-12T02:25:23.222Z,4.30
2019-03-12T02:27:53.700Z,4.20
2019-03-12T02:30:24.534Z,4.60
2019-03-12T02:32:54.973Z,4.20
2019-03-12T02:35:25.443Z,4.27
2019-03-12T02:37:55.872Z,4.40
2019-03-12T02:40:26.316Z,4.60
2019-03-12T02:42:56.789Z,4.30
2019-03-12T02:45:27.222Z,4.97
2019-03-12T02:47:57.659Z,5.27
2019-03-12T02:50:28.447Z,5.40
2019-03-12T02:52:59.214Z,5.77
2019-03-12T02:55:29.651Z,5.83
2019-03-12T02:58:00.145Z,5.70
2019-03-12T03:00:30.572Z,5.20
2019-03-12T03:03:01.026Z,5.00
2019-03-12T03:05:33.332Z,4.83
2019-03-12T03:08:09.188Z,4.93
2019-03-12T03:10:40.673Z,4.43
2019-03-12T03:13:11.103Z,4.57
2019-03-12T03:15:43.527Z,4.90
2019-03-12T03:18:14.172Z,4.67
2019-03-12T03:20:44.604Z,4.67
2019-03-12T03:23:15.387Z,4.43
2019-03-12T03:25:45.945Z,4.50
2019-03-12T03:28:16.400Z,4.70
2019-03-12T03:30:46.838Z,4.40
2019-03-12T03:33:17.326Z,3.97
2019-03-12T03:35:48.082Z,4.07
2019-03-12T03:38:18.521Z,4.40
2019-03-12T03:40:49.013Z,4.00
2019-03-12T03:43:19.448Z,3.67
2019-03-12T03:45:49.903Z,4.07
2019-03-12T03:48:20.372Z,3.93
2019-03-12T03:50:51.333Z,4.70
2019-03-12T03:53:22.130Z,4.27
2019-03-12T03:55:54.153Z,4.17
2019-03-12T03:58:24.993Z,3.43
2019-03-12T04:00:55.531Z,3.43
2019-03-12T04:03:26.775Z,4.07
2019-03-12T04:05:58.613Z,3.60
2019-03-12T04:08:30.857Z,3.23
2019-03-12T04:11:01.685Z,4.07
2019-03-12T04:13:32.118Z,3.17
2019-03-12T04:16:02.556Z,3.40
2019-03-12T04:18:33.606Z,3.33
2019-03-12T04:21:04.391Z,3.00
2019-03-12T04:23:34.818Z,2.87
2019-03-12T04:26:05.487Z,3.10
2019-03-12T04:28:35.976Z,2.77
2019-03-12T04:31:06.416Z,2.80
2019-03-12T04:34:17.188Z,3.40
2019-03-12T04:36:48.930Z,3.17
2019-03-12T04:39:19.361Z,2.43
2019-03-12T04:41:50.172Z,2.80
2019-03-12T04:44:20.602Z,2.43
2019-03-12T04:46:51.384Z,2.80
2019-03-12T04:49:21.888Z,3.17
2019-03-12T04:51:52.320Z,3.10
2019-03-12T04:54:22.752Z,3.00
2019-03-12T04:56:53.237Z,3.20
2019-03-12T04:59:23.673Z,2.93
2019-03-12T05:01:54.104Z,2.47
2019-03-12T05:04:24.564Z,3.00
2019-03-12T05:06:55.304Z,2.60
2019-03-12T05:09:25.785Z,2.67
2019-03-12T05:11:56.227Z,3.87
2019-03-12T05:14:34.153Z,2.93
2019-03-12T05:17:09.723Z,2.97
2019-03-12T05:19:45.846Z,2.80
2019-03-12T05:22:17.930Z,3.20
2019-03-12T05:24:48.393Z,3.13
2019-03-12T05:27:18.876Z,2.60
2019-03-12T05:29:49.675Z,2.80
2019-03-12T05:32:20.480Z,2.83
2019-03-12T05:34:50.958Z,3.53
2019-03-12T05:37:21.424Z,2.57
2019-03-12T05:39:51.831Z,3.10
2019-03-12T05:42:23.122Z,3.00
2019-03-12T05:44:53.805Z,3.10
2019-03-12T05:47:24.239Z,2.93
2019-03-12T05:49:54.717Z,3.63
2019-03-12T05:52:25.157Z,2.93
2019-03-12T05:54:56.191Z,3.77
2019-03-12T05:57:27.046Z,3.17
2019-03-12T05:59:57.470Z,3.53
2019-03-12T06:02:27.911Z,2.97
2019-03-12T06:04:58.733Z,3.90
2019-03-12T06:07:29.565Z,3.93
2019-03-12T06:10:00.000Z,4.50
2019-03-12T06:12:30.817Z,3.90
2019-03-12T06:15:01.252Z,5.10
2019-03-12T06:17:31.999Z,4.47
2019-03-12T06:20:02.843Z,5.47
2019-03-12T06:22:33.338Z,5.50
2019-03-12T06:25:04.262Z,6.20
2019-03-12T06:27:34.734Z,5.20
2019-03-12T06:30:05.797Z,5.53
2019-03-12T06:32:55.565Z,5.37
2019-03-12T06:35:39.663Z,6.13
2019-03-12T06:38:31.764Z,6.70
2019-03-12T06:41:39.262Z,5.13
2019-03-12T06:44:18.020Z,5.80
2019-03-12T06:47:22.603Z,5.50
2019-03-12T06:50:24.396Z,4.87
2019-03-12T06:53:16.905Z,4.60
2019-03-12T06:56:01.345Z,5.00
2019-03-12T06:58:54.770Z,5.07
2019-03-12T07:01:44.585Z,5.23
2019-03-12T07:04:36.705Z,5.23
2019-03-12T07:07:25.357Z,5.80
2019-03-12T07:10:05.913Z,6.13
2019-03-12T07:12:42.996Z,5.30
2019-03-12T07:15:31.909Z,4.87
2019-03-12T07:18:27.648Z,4.20
2019-03-12T07:21:25.876Z,5.27
2019-03-12T07:24:15.691Z,4.77
2019-03-12T07:27:05.054Z,4.73
2019-03-12T07:30:07.100Z,5.00
2019-03-12T07:32:59.531Z,4.33
2019-03-12T07:35:36.510Z,4.27
2019-03-12T07:38:24.714Z,3.80
2019-03-12T07:41:05.100Z,3.40
2019-03-12T07:43:54.627Z,3.80
2019-03-12T07:46:47.192Z,3.50
2019-03-12T07:49:36.545Z,3.10
2019-03-12T07:52:27.772Z,4.80
2019-03-12T07:55:35.552Z,3.70
2019-03-12T07:58:35.304Z,3.15
2019-03-12T08:01:14.587Z,3.13
2019-03-12T08:04:07.326Z,3.70
2019-03-12T08:07:04.662Z,3.37
2019-03-12T08:09:55.457Z,3.30
2019-03-12T08:12:45.692Z,2.70
2019-03-12T08:15:33.930Z,3.30
2019-03-12T08:18:18.690Z,2.93
2019-03-12T08:21:22.141Z,3.40
2019-03-12T08:23:54.240Z,2.77
2019-03-12T08:26:43.675Z,3.60
2019-03-12T08:29:37.774Z,3.43
2019-03-12T08:32:13.765Z,3.20
2019-03-12T08:35:09.013Z,3.33
2019-03-12T08:37:48.395Z,2.93
2019-03-12T08:40:52.427Z,2.93
2019-03-12T08:43:38.212Z,3.10
2019-03-12T08:46:27.082Z,3.13
2019-03-12T08:49:34.778Z,3.43
2019-03-12T08:52:29.640Z,3.77
2019-03-12T08:55:22.163Z,3.33
2019-03-12T08:58:29.834Z,3.37
2019-03-12T09:01:18.241Z,3.67
2019-03-12T09:04:16.737Z,4.33
2019-03-12T09:06:56.453Z,4.13
2019-03-12T09:09:44.443Z,3.70
2019-03-12T09:12:33.855Z,3.90
2019-03-12T09:15:35.320Z,3.73
2019-03-12T09:18:27.561Z,4.10
2019-03-12T09:21:29.008Z,3.93
2019-03-12T09:24:30.672Z,4.27
2019-03-12T09:27:20.039Z,4.70
2019-03-12T09:30:03.283Z,5.07
2019-03-12T09:32:50.337Z,4.27
2019-03-12T09:35:28.282Z,4.87
2019-03-12T09:38:15.759Z,5.17
2019-03-12T09:41:04.277Z,4.40
2019-03-12T09:43:48.092Z,5.37
2019-03-12T09:46:39.690Z,4.67
2019-03-12T09:49:27.588Z,5.43
2019-03-12T09:52:14.223Z,4.40
2019-03-12T09:55:07.622Z,4.40
2019-03-12T09:58:06.965Z,4.50
2019-03-12T10:00:49.531Z,5.87
2019-03-12T10:03:44.971Z,4.83
2019-03-12T10:06:40.321Z,3.80
2019-03-12T10:09:36.610Z,5.07
2019-03-12T10:12:28.757Z,5.77
2019-03-12T10:15:18.152Z,5.70
2019-03-12T10:17:55.924Z,4.63
2019-03-12T10:20:36.935Z,4.97
2019-03-12T10:23:32.114Z,5.60
2019-03-12T10:26:24.257Z,4.50
2019-03-12T10:29:20.164Z,4.70
2019-03-12T10:32:07.380Z,4.67
2019-03-12T10:34:50.563Z,5.43
2019-03-12T10:37:43.041Z,5.47
2019-03-12T10:40:38.600Z,5.10
2019-03-12T10:43:28.816Z,4.43
2019-03-12T10:46:18.168Z,4.90
2019-03-12T10:48:48.648Z,4.90
2019-03-12T10:51:19.180Z,4.20
2019-03-12T10:53:49.642Z,4.63
2019-03-12T10:56:20.493Z,4.53
2019-03-12T10:58:51.197Z,4.17
2019-03-12T11:01:21.623Z,4.50
2019-03-12T11:03:52.095Z,4.20
2019-03-12T11:06:22.742Z,4.40
2019-03-12T11:08:53.273Z,4.03
2019-03-12T11:11:23.766Z,4.70
2019-03-12T11:13:54.194Z,4.67
2019-03-12T11:16:24.625Z,3.87
2019-03-12T11:18:55.107Z,4.10
2019-03-12T11:21:26.035Z,3.40
2019-03-12T11:23:56.469Z,4.37
2019-03-12T11:26:27.321Z,10.10
2019-03-12T11:28:57.772Z,2.87
2019-03-12T11:31:28.575Z,3.77
2019-03-12T11:33:59.056Z,3.43
2019-03-12T11:36:30.011Z,3.53
2019-03-12T11:39:00.404Z,3.90
2019-03-12T11:41:31.551Z,3.20
2019-03-12T11:44:02.345Z,2.83
2019-03-12T11:46:41.554Z,3.13
2019-03-12T11:49:05.083Z,3.00
2019-03-12T11:51:35.510Z,3.10
2019-03-12T11:54:06.099Z,3.13
2019-03-12T11:56:36.570Z,3.07
2019-03-12T11:59:07.002Z,2.90
2019-03-12T12:01:37.406Z,3.10
2019-03-12T12:04:08.251Z,2.80
2019-03-12T12:06:42.525Z,3.50
2019-03-12T12:09:11.143Z,3.17
2019-03-12T12:11:41.910Z,3.40
2019-03-12T12:14:12.403Z,2.90
2019-03-12T12:16:44.424Z,3.07
2019-03-12T12:19:15.233Z,3.13
2019-03-12T12:21:45.676Z,3.30
2019-03-12T12:24:16.085Z,3.27
2019-03-12T12:26:46.564Z,3.20
2019-03-12T12:29:17.064Z,3.53
2019-03-12T12:31:47.733Z,3.03
2019-03-12T12:34:19.464Z,3.70
2019-03-12T12:36:49.926Z,3.50
2019-03-12T12:39:20.919Z,3.07
2019-03-12T12:41:51.684Z,3.30
2019-03-12T12:44:22.498Z,3.20
2019-03-12T12:46:53.269Z,3.20
2019-03-12T12:49:24.083Z,3.73
2019-03-12T12:51:54.512Z,3.33
2019-03-12T12:54:24.935Z,2.90
2019-03-12T12:56:55.415Z,3.57
2019-03-12T12:59:25.842Z,2.50
2019-03-12T13:01:56.631Z,3.17
2019-03-12T13:04:27.098Z,3.33
2019-03-12T13:06:57.551Z,2.60
2019-03-12T13:09:27.985Z,3.03
2019-03-12T13:11:58.456Z,2.63
2019-03-12T13:14:40.715Z,2.87
2019-03-12T13:17:01.183Z,2.70
2019-03-12T13:19:31.748Z,3.03
2019-03-12T13:22:02.182Z,2.80
2019-03-12T13:24:33.467Z,2.33
2019-03-12T13:27:03.962Z,2.33
2019-03-12T13:29:34.684Z,3.27
2019-03-12T13:32:13.404Z,2.90
2019-03-12T13:34:37.270Z,2.53
2019-03-12T13:37:08.054Z,2.47
2019-03-12T13:39:38.553Z,2.37
2019-03-12T13:42:09.777Z,2.60
2019-03-12T13:44:40.242Z,2.23
2019-03-12T13:47:10.791Z,2.60
2019-03-12T13:49:41.582Z,2.20
2019-03-12T13:52:12.078Z,2.70
2019-03-12T13:54:42.651Z,3.00
2019-03-12T13:57:13.063Z,2.57
2019-03-12T13:59:43.878Z,2.50
2019-03-12T14:02:14.926Z,2.63
2019-03-12T14:04:45.359Z,2.37
2019-03-12T14:07:15.789Z,2.40
2019-03-12T14:09:46.276Z,2.70
2019-03-12T14:12:17.448Z,3.07
2019-03-12T14:14:47.879Z,1.90
2019-03-12T14:17:18.348Z,2.50
2019-03-12T14:19:48.772Z,2.00
2019-03-12T14:22:19.279Z,2.30
2019-03-12T14:24:49.759Z,2.17
2019-03-12T14:27:20.563Z,2.40
2019-03-12T14:29:51.297Z,2.40
2019-03-12T14:32:21.774Z,2.70
2019-03-12T14:34:52.565Z,2.57
2019-03-12T14:37:22.996Z,2.30
2019-03-12T14:39:53.496Z,2.67
2019-03-12T14:42:23.906Z,2.37
2019-03-12T14:44:54.326Z,3.20
2019-03-12T14:47:24.906Z,2.37
2019-03-12T14:49:55.423Z,2.57
2019-03-12T14:52:30.259Z,2.53
2019-03-12T14:55:01.270Z,2.13
2019-03-12T14:57:31.756Z,1.90
2019-03-12T15:00:02.175Z,2.40
2019-03-12T15:02:33.019Z,2.30
2019-03-12T15:05:03.462Z,2.83
2019-03-12T15:07:33.887Z,2.67
2019-03-12T15:10:05.539Z,2.63
2019-03-12T15:12:35.974Z,2.27
2019-03-12T15:15:06.704Z,2.80
2019-03-12T15:17:37.476Z,2.07
2019-03-12T15:20:09.174Z,2.20
2019-03-12T15:22:39.736Z,2.70
2019-03-12T15:25:10.658Z,2.37
2019-03-12T15:27:41.083Z,2.07
2019-03-12T15:30:14.547Z,2.40
2019-03-12T15:32:45.387Z,2.43
2019-03-12T15:35:15.812Z,2.70
2019-03-12T15:37:46.613Z,2.40
2019-03-12T15:40:17.492Z,1.73
2019-03-12T15:42:47.932Z,2.27
2019-03-12T15:45:18.356Z,2.07
2019-03-12T15:47:49.586Z,2.67
2019-03-12T15:50:20.398Z,2.10
2019-03-12T15:52:50.827Z,2.10
2019-03-12T15:55:21.311Z,2.23
2019-03-12T15:57:52.098Z,2.40
2019-03-12T16:00:22.559Z,2.17
2019-03-12T16:02:53.031Z,2.20
2019-03-12T16:05:23.459Z,2.33
2019-03-12T16:07:54.223Z,2.70
2019-03-12T16:10:24.695Z,2.20
2019-03-12T16:12:55.160Z,2.03
2019-03-12T16:15:25.584Z,2.17
2019-03-12T16:17:56.403Z,2.17
2019-03-12T16:20:27.494Z,2.30
2019-03-12T16:22:57.932Z,2.33
2019-03-12T16:25:28.411Z,2.00
2019-03-12T16:27:58.851Z,2.30
2019-03-12T16:30:29.631Z,2.40
2019-03-12T16:33:00.087Z,2.43
2019-03-12T16:35:31.536Z,2.53
2019-03-12T16:38:01.977Z,2.27
2019-03-12T16:40:33.247Z,2.27
2019-03-12T16:43:04.026Z,2.43
2019-03-12T16:45:35.126Z,2.17
2019-03-12T16:48:05.606Z,2.50
2019-03-12T16:50:36.452Z,2.17
2019-03-12T16:53:06.880Z,2.27
2019-03-12T16:55:37.367Z,2.00
2019-03-12T16:58:08.476Z,2.47
2019-03-12T17:00:38.901Z,2.40
2019-03-12T17:03:09.471Z,2.20
2019-03-12T17:05:40.258Z,2.23
2019-03-12T17:08:11.064Z,2.30
2019-03-12T17:10:54.024Z,2.50
2019-03-12T17:13:13.686Z,2.40
2019-03-12T17:15:44.527Z,2.60
2019-03-12T17:18:15.047Z,2.53
2019-03-12T17:20:46.458Z,2.20
2019-03-12T17:23:16.931Z,2.47
2019-03-12T17:25:47.399Z,1.87
2019-03-12T17:28:17.903Z,2.30
2019-03-12T17:30:48.374Z,1.80
2019-03-12T17:33:18.958Z,1.90
2019-03-12T17:35:50.027Z,2.63
2019-03-12T17:38:20.726Z,1.97
2019-03-12T17:40:51.205Z,1.90
2019-03-12T17:43:21.683Z,1.60
2019-03-12T17:45:52.461Z,2.00
2019-03-12T17:48:22.971Z,1.87
2019-03-12T17:50:53.777Z,2.13
2019-03-12T17:53:24.555Z,2.20
2019-03-12T17:55:55.035Z,1.97
2019-03-12T17:58:25.467Z,2.00
2019-03-12T18:00:56.355Z,1.90
2019-03-12T18:03:27.499Z,1.60
2019-03-12T18:05:57.929Z,2.00
2019-03-12T18:08:28.971Z,2.10
2019-03-12T18:10:59.482Z,2.20
2019-03-12T18:13:30.867Z,1.90
2019-03-12T18:16:01.291Z,2.20
2019-03-12T18:18:34.485Z,1.70
2019-03-12T18:21:04.921Z,1.83
2019-03-12T18:23:35.353Z,1.90
2019-03-12T18:26:08.161Z,1.70
2019-03-12T18:28:41.682Z,2.10
2019-03-12T18:31:14.098Z,2.30
2019-03-12T18:33:44.527Z,2.07
2019-03-12T18:36:14.967Z,1.67
2019-03-12T18:38:45.455Z,2.23
2019-03-12T18:41:17.660Z,1.70
2019-03-12T18:43:48.816Z,1.70
2019-03-12T18:46:20.327Z,2.33
2019-03-12T18:48:51.721Z,1.53
2019-03-12T18:51:24.432Z,1.83
2019-03-12T18:53:55.387Z,1.90
2019-03-12T18:56:26.688Z,1.90
2019-03-12T18:58:57.110Z,2.10
2019-03-12T19:01:27.563Z,1.67
2019-03-12T19:03:58.387Z,2.10
2019-03-12T19:06:30.299Z,1.80
2019-03-12T19:09:01.059Z,1.93
2019-03-12T19:11:32.533Z,1.93
2019-03-12T19:14:04.299Z,1.93
2019-03-12T19:16:35.179Z,2.43
2019-03-12T19:19:06.506Z,1.90
2019-03-12T19:21:36.941Z,1.90
2019-03-12T19:24:07.714Z,1.90
2019-03-12T19:26:40.066Z,1.97
2019-03-12T19:29:10.506Z,2.30
2019-03-12T19:31:56.009Z,1.80
2019-03-12T19:34:31.740Z,1.90
2019-03-12T19:37:02.507Z,2.20
2019-03-12T19:39:33.348Z,2.43
2019-03-12T19:42:03.771Z,1.70
2019-03-12T19:44:34.258Z,1.57
2019-03-12T19:47:05.030Z,1.77
2019-03-12T19:49:35.798Z,2.13
2019-03-12T19:52:06.272Z,1.80
2019-03-12T19:54:37.609Z,2.13
2019-03-12T19:57:09.351Z,2.37
2019-03-12T19:59:39.853Z,1.23
2019-03-12T20:02:16.067Z,1.60
2019-03-12T20:04:47.426Z,1.70
2019-03-12T20:07:18.836Z,1.93
2019-03-12T20:10:02.803Z,1.83
2019-03-12T20:13:08.915Z,2.20
2019-03-12T20:16:38.296Z,2.10
2019-03-12T20:19:48.626Z,1.70
2019-03-12T20:23:12.319Z,1.50
2019-03-12T20:26:28.447Z,1.80
2019-03-12T20:29:34.907Z,1.63
2019-03-12T20:32:48.165Z,1.50
2019-03-12T20:36:00.399Z,1.67
2019-03-12T20:39:11.013Z,1.90
2019-03-12T20:42:32.080Z,1.40
2019-03-12T20:45:43.374Z,1.40
2019-03-12T20:48:52.847Z,1.60
2019-03-12T20:51:59.122Z,1.60
2019-03-12T20:55:07.235Z,1.43
2019-03-12T20:58:16.231Z,1.13
2019-03-12T21:01:30.930Z,1.60
2019-03-12T21:04:29.862Z,1.70
2019-03-12T21:07:41.227Z,1.67
2019-03-12T21:10:52.592Z,1.67
2019-03-12T21:14:19.054Z,1.40
2019-03-12T21:17:21.547Z,1.50
2019-03-12T21:20:30.498Z,1.50
2019-03-12T21:23:29.179Z,2.10
2019-03-12T21:26:35.679Z,1.57
2019-03-12T21:29:47.359Z,1.90
2019-03-12T21:32:18.877Z,1.40
2019-03-12T21:34:49.821Z,1.40
2019-03-12T21:37:20.805Z,1.60
2019-03-12T21:39:55.666Z,1.30
2019-03-12T21:42:25.244Z,1.40
2019-03-12T21:44:55.719Z,1.53
2019-03-12T21:47:26.596Z,1.27
2019-03-12T21:49:57.755Z,1.40
2019-03-12T21:52:28.187Z,1.30
2019-03-12T21:54:58.794Z,1.50
2019-03-12T21:57:29.316Z,1.37
2019-03-12T21:59:59.731Z,1.40
2019-03-12T22:02:30.163Z,2.23
2019-03-12T22:05:00.902Z,1.50
2019-03-12T22:07:31.709Z,1.43
2019-03-12T22:10:02.127Z,1.30
2019-03-12T22:12:32.591Z,1.40
2019-03-12T22:15:03.014Z,1.17
2019-03-12T22:17:33.440Z,1.30
2019-03-12T22:20:04.020Z,1.40
2019-03-12T22:22:38.958Z,1.47
2019-03-12T22:25:11.320Z,1.60
2019-03-12T22:27:41.740Z,1.50
2019-03-12T22:30:15.486Z,1.10
2019-03-12T22:32:46.422Z,1.20
2019-03-12T22:35:16.846Z,1.47
2019-03-12T22:37:47.751Z,1.47
2019-03-12T22:40:18.171Z,1.33
2019-03-12T22:42:48.621Z,1.47
2019-03-12T22:45:19.046Z,1.80
2019-03-12T22:47:50.025Z,1.50
2019-03-12T22:50:20.470Z,1.50
2019-03-12T22:52:51.014Z,1.50
2019-03-12T22:55:21.431Z,1.03
2019-03-12T22:57:51.857Z,1.37
2019-03-12T23:00:22.658Z,1.60
2019-03-12T23:02:53.142Z,1.20
2019-03-12T23:05:23.567Z,1.50
2019-03-12T23:07:54.384Z,1.33
2019-03-12T23:10:25.308Z,1.50
2019-03-12T23:12:55.732Z,1.40
2019-03-12T23:15:26.474Z,1.80
2019-03-12T23:17:57.225Z,1.40
2019-03-12T23:20:27.652Z,1.37
2019-03-12T23:22:58.128Z,1.50
2019-03-12T23:25:28.552Z,1.40
2019-03-12T23:27:59.078Z,1.60
2019-03-12T23:30:29.600Z,1.40
2019-03-12T23:33:00.118Z,1.40
2019-03-12T23:35:30.608Z,1.47
2019-03-12T23:38:01.122Z,1.57
2019-03-12T23:40:31.930Z,1.23
2019-03-12T23:43:02.388Z,1.50
2019-03-12T23:45:33.185Z,1.77
2019-03-12T23:48:03.615Z,1.43
2019-03-12T23:50:34.322Z,1.50
2019-03-12T23:53:04.840Z,1.90
2019-03-12T23:55:35.288Z,1.83
2019-03-12T23:58:05.889Z,1.50
